Aviation Digital Data Service (ADDS)

Output produced by METARs form (1054 UTC 24 November 2017)
found at http://www.aviationweather.gov/adds/metars/
 
KDFW 240903Z 2409/2512 17010KT P6SM SCT250